createdAt,value
2017-08-26T00:00:15.902Z,28.80
2017-08-26T00:02:49.725Z,25.83
2017-08-26T00:05:18.061Z,24.57
2017-08-26T00:07:46.430Z,24.03
2017-08-26T00:10:14.773Z,21.90
2017-08-26T00:12:43.090Z,23.60
2017-08-26T00:15:11.422Z,19.07
2017-08-26T00:17:39.745Z,19.70
2017-08-26T00:20:08.074Z,20.23
2017-08-26T00:22:36.419Z,16.57
2017-08-26T00:25:04.756Z,19.83
2017-08-26T00:27:33.098Z,19.60
2017-08-26T00:30:01.410Z,19.10
2017-08-26T00:32:29.737Z,21.73
2017-08-26T00:34:58.102Z,20.53
2017-08-26T00:37:26.459Z,17.00
2017-08-26T00:39:54.811Z,17.53
2017-08-26T00:42:23.138Z,18.03
2017-08-26T00:44:51.472Z,19.33
2017-08-26T00:47:19.781Z,16.63
2017-08-26T00:49:48.115Z,16.47
2017-08-26T00:52:16.458Z,16.97
2017-08-26T00:54:44.785Z,18.60
2017-08-26T00:57:13.140Z,17.93
2017-08-26T00:59:41.442Z,16.80
2017-08-26T01:02:09.772Z,17.83
2017-08-26T01:04:38.116Z,19.27
2017-08-26T01:07:11.843Z,18.03
2017-08-26T01:09:40.184Z,14.70
2017-08-26T01:12:08.522Z,17.67
2017-08-26T01:14:36.822Z,15.57
2017-08-26T01:17:05.149Z,15.63
2017-08-26T01:19:33.451Z,14.00
2017-08-26T01:22:01.814Z,20.17
2017-08-26T01:24:30.143Z,17.30
2017-08-26T01:26:58.454Z,16.00
2017-08-26T01:29:26.780Z,18.50
2017-08-26T01:31:55.124Z,15.03
2017-08-26T01:34:23.429Z,17.70
2017-08-26T01:36:51.765Z,15.40
2017-08-26T01:39:20.101Z,13.83
2017-08-26T01:41:48.432Z,13.87
2017-08-26T01:44:16.770Z,13.70
2017-08-26T01:46:45.097Z,17.30
2017-08-26T01:49:13.414Z,19.47
2017-08-26T01:51:41.752Z,21.20
2017-08-26T01:54:10.055Z,18.47
2017-08-26T01:56:38.399Z,16.30
2017-08-26T01:59:06.693Z,18.10
2017-08-26T02:01:35.040Z,17.70
2017-08-26T02:04:03.374Z,18.60
2017-08-26T02:06:31.686Z,15.67
2017-08-26T02:09:00.037Z,16.87
2017-08-26T02:11:28.344Z,21.30
2017-08-26T02:13:56.783Z,18.00
2017-08-26T02:16:25.114Z,19.37
2017-08-26T02:18:53.448Z,18.20
2017-08-26T02:21:21.790Z,19.43
2017-08-26T02:23:50.099Z,19.20
2017-08-26T02:26:18.446Z,17.97
2017-08-26T02:28:46.816Z,17.93
2017-08-26T02:31:15.132Z,23.67
2017-08-26T02:33:43.467Z,23.20
2017-08-26T02:36:11.779Z,21.57
2017-08-26T02:38:40.122Z,19.03
2017-08-26T02:41:08.430Z,19.03
2017-08-26T02:43:36.780Z,21.37
2017-08-26T02:46:05.107Z,21.03
2017-08-26T02:48:33.412Z,23.37
2017-08-26T02:51:01.745Z,25.30
2017-08-26T02:53:30.049Z,23.73
2017-08-26T02:55:58.405Z,21.53
2017-08-26T02:58:26.716Z,25.17
2017-08-26T03:00:55.027Z,27.10
2017-08-26T03:03:23.374Z,24.47
2017-08-26T03:05:51.709Z,23.17
2017-08-26T03:08:20.042Z,24.63
2017-08-26T03:10:48.374Z,21.67
2017-08-26T03:13:16.685Z,24.47
2017-08-26T03:15:45.023Z,23.60
2017-08-26T03:18:13.323Z,25.70
2017-08-26T03:20:41.672Z,25.40
2017-08-26T03:23:10.126Z,21.97
2017-08-26T03:25:38.443Z,23.47
2017-08-26T03:28:06.786Z,23.87
2017-08-26T03:30:35.096Z,23.00
2017-08-26T03:33:03.436Z,25.90
2017-08-26T03:35:31.747Z,27.30
2017-08-26T03:38:00.076Z,29.10
2017-08-26T03:40:28.413Z,25.43
2017-08-26T03:42:56.753Z,23.77
2017-08-26T03:45:25.074Z,26.53
2017-08-26T03:47:53.424Z,23.83
2017-08-26T03:50:21.725Z,23.23
2017-08-26T03:52:50.036Z,22.90
2017-08-26T03:55:18.359Z,22.17
2017-08-26T03:57:46.653Z,19.80
2017-08-26T04:00:14.987Z,18.33
2017-08-26T04:02:43.320Z,18.57
2017-08-26T04:05:11.653Z,17.20
2017-08-26T04:07:39.981Z,16.43
2017-08-26T04:10:08.306Z,18.67
2017-08-26T04:12:36.616Z,18.40
2017-08-26T04:15:04.950Z,17.50
2017-08-26T04:17:33.261Z,17.97
2017-08-26T04:20:01.638Z,15.80
2017-08-26T04:22:29.941Z,14.57
2017-08-26T04:24:58.292Z,15.00
2017-08-26T04:27:26.594Z,14.00
2017-08-26T04:29:54.991Z,15.47
2017-08-26T04:32:23.372Z,17.37
2017-08-26T04:34:51.706Z,16.40
2017-08-26T04:37:20.075Z,15.67
2017-08-26T04:39:48.385Z,14.67
2017-08-26T04:42:16.756Z,16.20
2017-08-26T04:44:45.058Z,16.30
2017-08-26T04:47:13.375Z,16.40
2017-08-26T04:49:41.750Z,14.83
2017-08-26T04:52:10.073Z,16.03
2017-08-26T04:54:38.419Z,16.10
2017-08-26T04:57:06.733Z,14.70
2017-08-26T04:59:35.104Z,14.70
2017-08-26T05:02:03.433Z,14.10
2017-08-26T05:04:31.761Z,14.57
2017-08-26T05:07:00.060Z,14.10
2017-08-26T05:09:28.373Z,16.23
2017-08-26T05:11:56.707Z,14.37
2017-08-26T05:14:25.014Z,13.50
2017-08-26T05:16:53.348Z,15.70
2017-08-26T05:19:21.667Z,14.50
2017-08-26T05:21:49.973Z,14.13
2017-08-26T05:24:18.360Z,15.53
2017-08-26T05:26:46.689Z,17.17
2017-08-26T05:29:15.350Z,16.20
2017-08-26T05:31:43.705Z,16.93
2017-08-26T05:34:12.002Z,10.63
2017-08-26T05:36:40.343Z,12.50
2017-08-26T05:39:08.672Z,17.17
2017-08-26T05:41:37.009Z,13.50
2017-08-26T05:44:05.320Z,16.60
2017-08-26T05:46:33.645Z,15.83
2017-08-26T05:49:01.952Z,15.33
2017-08-26T05:51:30.279Z,14.90
2017-08-26T05:53:58.593Z,14.33
2017-08-26T05:56:26.958Z,11.83
2017-08-26T05:58:55.264Z,15.63
2017-08-26T06:01:23.605Z,13.77
2017-08-26T06:03:51.923Z,13.50
2017-08-26T06:06:20.379Z,13.10
2017-08-26T06:08:48.747Z,13.60
2017-08-26T06:11:17.049Z,12.60
2017-08-26T06:13:45.387Z,11.00
2017-08-26T06:16:13.722Z,10.00
2017-08-26T06:18:42.033Z,10.30
2017-08-26T06:21:10.370Z,9.93
2017-08-26T06:23:38.667Z,10.90
2017-08-26T06:26:07.023Z,10.30
2017-08-26T06:28:35.364Z,10.17
2017-08-26T06:31:03.673Z,9.40
2017-08-26T06:33:32.020Z,10.07
2017-08-26T06:36:00.359Z,8.83
2017-08-26T06:38:28.673Z,9.60
2017-08-26T06:40:57.001Z,8.63
2017-08-26T06:43:25.348Z,9.13
2017-08-26T06:45:53.644Z,9.23
2017-08-26T06:48:21.941Z,9.37
2017-08-26T06:50:50.270Z,7.90
2017-08-26T06:53:18.615Z,6.60
2017-08-26T06:55:46.985Z,6.23
2017-08-26T06:58:15.285Z,6.30
2017-08-26T07:00:43.597Z,7.40
2017-08-26T07:03:11.929Z,6.00
2017-08-26T07:05:40.231Z,6.03
2017-08-26T07:08:08.547Z,5.50
2017-08-26T07:10:36.877Z,5.80
2017-08-26T07:13:05.178Z,5.30
2017-08-26T07:15:34.262Z,5.00
2017-08-26T07:18:02.630Z,4.80
2017-08-26T07:20:30.951Z,4.40
2017-08-26T07:22:59.294Z,5.40
2017-08-26T07:25:27.622Z,5.20
2017-08-26T07:27:55.952Z,4.60
2017-08-26T07:30:24.302Z,5.10
2017-08-26T07:32:52.646Z,5.33
2017-08-26T07:35:21.054Z,4.50
2017-08-26T07:37:49.353Z,4.00
2017-08-26T07:40:17.734Z,4.40
2017-08-26T07:42:46.069Z,5.37
2017-08-26T07:45:14.379Z,4.50
2017-08-26T07:47:42.784Z,4.50
2017-08-26T07:50:11.122Z,4.90
2017-08-26T07:52:39.463Z,4.80
2017-08-26T07:55:07.771Z,4.03
2017-08-26T07:57:36.078Z,3.80
2017-08-26T08:00:04.463Z,4.47
2017-08-26T08:02:32.809Z,4.10
2017-08-26T08:05:01.139Z,5.13
2017-08-26T08:07:29.470Z,4.20
2017-08-26T08:09:57.770Z,4.27
2017-08-26T08:12:26.103Z,4.33
2017-08-26T08:14:54.433Z,4.20
2017-08-26T08:17:22.776Z,3.93
2017-08-26T08:19:51.104Z,4.67
2017-08-26T08:22:19.422Z,4.13
2017-08-26T08:24:47.747Z,4.00
2017-08-26T08:27:16.056Z,3.90
2017-08-26T08:29:44.363Z,3.80
2017-08-26T08:32:12.704Z,4.20
2017-08-26T08:34:41.038Z,3.37
2017-08-26T08:37:09.337Z,4.17
2017-08-26T08:39:37.770Z,4.00
2017-08-26T08:42:06.097Z,3.43
2017-08-26T08:44:34.436Z,3.77
2017-08-26T08:47:02.747Z,3.70
2017-08-26T08:49:31.049Z,3.43
2017-08-26T08:51:59.409Z,4.00
2017-08-26T08:54:27.771Z,4.03
2017-08-26T08:56:56.099Z,4.87
2017-08-26T08:59:24.711Z,4.60
2017-08-26T09:01:53.098Z,5.47
2017-08-26T09:04:21.441Z,4.43
2017-08-26T09:06:49.769Z,4.53
2017-08-26T09:09:18.099Z,5.13
2017-08-26T09:11:46.553Z,5.17
2017-08-26T09:14:14.865Z,5.00
2017-08-26T09:16:43.189Z,5.47
2017-08-26T09:19:11.522Z,6.17
2017-08-26T09:21:39.946Z,4.70
2017-08-26T09:24:08.246Z,5.57
2017-08-26T09:26:36.837Z,4.83
2017-08-26T09:29:05.219Z,5.40
2017-08-26T09:31:33.526Z,5.03
2017-08-26T09:34:01.856Z,5.20
2017-08-26T09:36:30.209Z,6.30
2017-08-26T09:38:58.625Z,5.77
2017-08-26T09:41:26.963Z,5.53
2017-08-26T09:43:55.604Z,6.20
2017-08-26T09:46:23.961Z,5.50
2017-08-26T09:48:52.431Z,5.50
2017-08-26T09:51:20.797Z,5.53
2017-08-26T09:53:49.121Z,5.73
2017-08-26T09:56:17.552Z,6.17
2017-08-26T09:58:45.877Z,6.80
2017-08-26T10:01:14.192Z,4.73
2017-08-26T10:03:42.524Z,5.20
2017-08-26T10:06:10.993Z,5.30
2017-08-26T10:08:39.321Z,5.30
2017-08-26T10:11:07.665Z,5.17
2017-08-26T10:13:36.068Z,6.60
2017-08-26T10:16:04.442Z,5.70
2017-08-26T10:18:32.742Z,6.50
2017-08-26T10:21:01.050Z,5.77
2017-08-26T10:23:29.401Z,5.50
2017-08-26T10:25:57.723Z,6.33
2017-08-26T10:28:26.067Z,5.37
2017-08-26T10:30:54.379Z,6.13
2017-08-26T10:33:22.735Z,6.87
2017-08-26T10:35:51.089Z,7.23
2017-08-26T10:38:19.411Z,9.43
2017-08-26T10:40:47.753Z,11.03
2017-08-26T10:43:16.087Z,10.73
2017-08-26T10:45:44.393Z,10.43
2017-08-26T10:48:12.759Z,10.30
2017-08-26T10:50:41.053Z,8.30
2017-08-26T10:53:10.245Z,10.10
2017-08-26T10:55:38.578Z,9.33
2017-08-26T10:58:06.930Z,8.57
2017-08-26T11:00:35.268Z,11.20
2017-08-26T11:03:03.613Z,10.33
2017-08-26T11:05:31.917Z,9.67
2017-08-26T11:08:00.280Z,9.07
2017-08-26T11:10:28.637Z,10.40
2017-08-26T11:12:56.941Z,11.87
2017-08-26T11:15:25.315Z,12.50
2017-08-26T11:17:53.615Z,9.53
2017-08-26T11:20:21.991Z,9.00
2017-08-26T11:22:50.326Z,10.80
2017-08-26T11:25:18.654Z,9.77
2017-08-26T11:27:46.949Z,9.90
2017-08-26T11:30:15.238Z,8.20
2017-08-26T11:32:43.565Z,9.50
2017-08-26T11:35:11.884Z,7.57
2017-08-26T11:37:40.234Z,10.90
2017-08-26T11:40:08.535Z,10.10
2017-08-26T11:42:36.832Z,8.70
2017-08-26T11:45:05.166Z,9.60
2017-08-26T11:47:33.467Z,9.80
2017-08-26T11:50:01.797Z,8.13
2017-08-26T11:52:30.100Z,8.47
2017-08-26T11:54:58.420Z,8.77
2017-08-26T11:57:26.758Z,7.57
2017-08-26T11:59:55.085Z,8.90
2017-08-26T12:02:23.414Z,8.77
2017-08-26T12:04:51.730Z,8.47
2017-08-26T12:07:20.047Z,9.20
2017-08-26T12:09:48.387Z,7.73
2017-08-26T12:12:16.694Z,6.67
2017-08-26T12:14:44.986Z,8.07
2017-08-26T12:17:13.311Z,6.33
2017-08-26T12:19:41.640Z,7.67
2017-08-26T12:22:09.935Z,8.53
2017-08-26T12:24:38.227Z,6.03
2017-08-26T12:27:06.567Z,6.70
2017-08-26T12:29:34.872Z,7.60
2017-08-26T12:32:03.185Z,8.37
2017-08-26T12:34:31.526Z,7.57
2017-08-26T12:36:59.841Z,7.37
2017-08-26T12:39:28.172Z,8.90
2017-08-26T12:41:56.487Z,7.60
2017-08-26T12:44:24.915Z,7.27
2017-08-26T12:46:53.209Z,7.33
2017-08-26T12:49:21.508Z,6.37
2017-08-26T12:51:49.875Z,7.57
2017-08-26T12:54:18.169Z,7.00
2017-08-26T12:56:46.484Z,7.43
2017-08-26T12:59:14.787Z,7.30
2017-08-26T13:01:43.106Z,7.27
2017-08-26T13:04:11.428Z,7.47
2017-08-26T13:06:39.729Z,9.00
2017-08-26T13:09:08.059Z,6.17
2017-08-26T13:11:36.365Z,8.40
2017-08-26T13:14:04.684Z,8.03
2017-08-26T13:16:32.986Z,7.20
2017-08-26T13:19:01.303Z,7.23
2017-08-26T13:21:29.601Z,6.20
2017-08-26T13:23:57.924Z,6.80
2017-08-26T13:26:26.222Z,7.33
2017-08-26T13:28:54.554Z,7.60
2017-08-26T13:31:22.886Z,7.13
2017-08-26T13:33:51.209Z,7.30
2017-08-26T13:36:19.506Z,6.23
2017-08-26T13:38:47.843Z,6.20
2017-08-26T13:41:16.163Z,7.50
2017-08-26T13:43:44.454Z,6.70
2017-08-26T13:46:12.777Z,7.40
2017-08-26T13:48:41.113Z,6.90
2017-08-26T13:51:09.530Z,6.93
2017-08-26T13:53:37.846Z,6.60
2017-08-26T13:56:06.180Z,7.60
2017-08-26T13:58:34.546Z,7.60
2017-08-26T14:01:02.846Z,7.00
2017-08-26T14:03:31.166Z,6.30
2017-08-26T14:05:59.460Z,7.00
2017-08-26T14:08:27.779Z,7.00
2017-08-26T14:10:56.079Z,6.43
2017-08-26T14:13:24.466Z,7.03
2017-08-26T14:15:52.816Z,6.07
2017-08-26T14:18:21.142Z,6.47
2017-08-26T14:20:49.471Z,6.90
2017-08-26T14:23:17.772Z,6.13
2017-08-26T14:25:46.110Z,6.03
2017-08-26T14:28:14.414Z,6.20
2017-08-26T14:30:42.718Z,6.97
2017-08-26T14:33:11.046Z,6.37
2017-08-26T14:35:39.342Z,5.93
2017-08-26T14:38:07.664Z,6.77
2017-08-26T14:40:35.996Z,6.73
2017-08-26T14:43:04.316Z,7.27
2017-08-26T14:45:32.935Z,7.23
2017-08-26T14:48:01.234Z,7.23
2017-08-26T14:50:29.555Z,7.50
2017-08-26T14:52:57.895Z,6.83
2017-08-26T14:55:26.201Z,6.70
2017-08-26T14:57:54.585Z,6.40
2017-08-26T15:00:22.892Z,7.50
2017-08-26T15:02:51.224Z,6.70
2017-08-26T15:05:19.549Z,8.43
2017-08-26T15:07:47.919Z,7.73
2017-08-26T15:10:16.234Z,7.20
2017-08-26T15:12:44.593Z,6.53
2017-08-26T15:15:12.894Z,7.37
2017-08-26T15:17:41.203Z,7.30
2017-08-26T15:20:09.517Z,6.60
2017-08-26T15:22:37.818Z,6.40
2017-08-26T15:25:06.160Z,6.47
2017-08-26T15:27:34.469Z,5.83
2017-08-26T15:30:02.763Z,6.67
2017-08-26T15:32:31.131Z,6.47
2017-08-26T15:34:59.460Z,6.27
2017-08-26T15:37:27.752Z,7.20
2017-08-26T15:39:56.087Z,6.53
2017-08-26T15:42:24.421Z,6.70
2017-08-26T15:44:52.773Z,7.60
2017-08-26T15:47:21.073Z,6.60
2017-08-26T15:49:49.389Z,6.73
2017-08-26T15:52:17.708Z,6.27
2017-08-26T15:54:45.998Z,6.40
2017-08-26T15:57:14.338Z,6.80
2017-08-26T15:59:42.627Z,6.20
2017-08-26T16:02:10.917Z,6.20
2017-08-26T16:04:39.241Z,6.60
2017-08-26T16:07:07.537Z,6.97
2017-08-26T16:09:35.868Z,7.03
2017-08-26T16:12:04.168Z,6.27
2017-08-26T16:14:32.459Z,6.33
2017-08-26T16:17:00.832Z,6.70
2017-08-26T16:19:29.128Z,6.40
2017-08-26T16:21:57.450Z,6.60
2017-08-26T16:24:25.782Z,7.00
2017-08-26T16:26:54.101Z,6.90
2017-08-26T16:29:22.431Z,6.67
2017-08-26T16:31:50.749Z,7.07
2017-08-26T16:34:19.070Z,6.43
2017-08-26T16:36:47.434Z,6.17
2017-08-26T16:39:15.740Z,6.70
2017-08-26T16:41:44.058Z,7.07
2017-08-26T16:44:12.356Z,7.60
2017-08-26T16:46:40.682Z,7.97
2017-08-26T16:49:09.026Z,5.70
2017-08-26T16:51:37.352Z,6.83
2017-08-26T16:54:05.699Z,6.60
2017-08-26T16:56:34.006Z,7.13
2017-08-26T16:59:02.301Z,7.97
2017-08-26T17:01:30.631Z,7.00
2017-08-26T17:03:58.946Z,6.43
2017-08-26T17:06:27.269Z,7.60
2017-08-26T17:08:55.561Z,6.53
2017-08-26T17:11:23.983Z,8.10
2017-08-26T17:13:52.289Z,8.27
2017-08-26T17:16:20.635Z,7.80
2017-08-26T17:18:48.926Z,7.27
2017-08-26T17:21:17.278Z,8.57
2017-08-26T17:23:45.582Z,7.47
2017-08-26T17:26:13.893Z,7.90
2017-08-26T17:28:42.216Z,7.37
2017-08-26T17:31:10.518Z,7.80
2017-08-26T17:33:38.860Z,8.67
2017-08-26T17:36:07.205Z,8.87
2017-08-26T17:38:35.506Z,8.93
2017-08-26T17:41:03.813Z,7.47
2017-08-26T17:43:32.126Z,7.20
2017-08-26T17:46:00.448Z,7.50
2017-08-26T17:48:28.773Z,6.77
2017-08-26T17:50:57.075Z,8.53
2017-08-26T17:53:25.404Z,6.27
2017-08-26T17:55:53.706Z,7.27
2017-08-26T17:58:22.015Z,7.77
2017-08-26T18:00:50.338Z,8.00
2017-08-26T18:03:18.657Z,7.80
2017-08-26T18:05:47.016Z,7.90
2017-08-26T18:08:15.353Z,7.57
2017-08-26T18:10:43.651Z,9.23
2017-08-26T18:13:11.944Z,8.10
2017-08-26T18:15:40.274Z,7.90
2017-08-26T18:18:08.610Z,7.90
2017-08-26T18:20:36.907Z,8.00
2017-08-26T18:23:05.245Z,9.03
2017-08-26T18:25:33.579Z,9.00
2017-08-26T18:28:01.870Z,8.40
2017-08-26T18:30:30.170Z,8.10
2017-08-26T18:32:58.510Z,8.50
2017-08-26T18:35:26.841Z,9.23
2017-08-26T18:37:55.158Z,9.10
2017-08-26T18:40:23.476Z,8.57
2017-08-26T18:42:51.778Z,8.33
2017-08-26T18:45:20.129Z,9.50
2017-08-26T18:47:48.423Z,9.80
2017-08-26T18:50:16.720Z,8.83
2017-08-26T18:52:45.062Z,8.87
2017-08-26T18:55:13.360Z,9.33
2017-08-26T18:57:41.700Z,9.27
2017-08-26T19:00:10.006Z,10.50
2017-08-26T19:02:38.303Z,8.87
2017-08-26T19:05:06.652Z,9.23
2017-08-26T19:07:34.962Z,10.10
2017-08-26T19:10:03.266Z,8.63
2017-08-26T19:12:31.604Z,9.50
2017-08-26T19:14:59.905Z,8.27
2017-08-26T19:17:28.218Z,10.20
2017-08-26T19:19:56.549Z,9.67
2017-08-26T19:22:24.919Z,9.80
2017-08-26T19:24:53.244Z,10.97
2017-08-26T19:27:21.857Z,10.70
2017-08-26T19:29:50.161Z,11.20
2017-08-26T19:32:18.466Z,11.03
2017-08-26T19:34:47.076Z,11.20
2017-08-26T19:37:15.383Z,10.47
2017-08-26T19:39:43.690Z,10.27
2017-08-26T19:42:12.015Z,12.70
2017-08-26T19:44:40.347Z,12.17
2017-08-26T19:47:08.691Z,10.53
2017-08-26T19:49:36.986Z,10.40
2017-08-26T19:52:05.301Z,10.80
2017-08-26T19:54:33.627Z,11.10
2017-08-26T19:57:01.936Z,11.00
2017-08-26T19:59:30.257Z,12.70
2017-08-26T20:01:58.571Z,12.00
2017-08-26T20:04:26.902Z,10.90
2017-08-26T20:06:55.208Z,11.60
2017-08-26T20:09:23.519Z,11.50
2017-08-26T20:11:51.868Z,11.10
2017-08-26T20:14:20.172Z,11.77
2017-08-26T20:16:48.503Z,12.43
2017-08-26T20:19:16.797Z,13.00
2017-08-26T20:21:45.135Z,12.80
2017-08-26T20:24:13.436Z,14.50
2017-08-26T20:26:41.737Z,15.47
2017-08-26T20:29:10.092Z,13.70
2017-08-26T20:31:38.406Z,14.53
2017-08-26T20:34:06.706Z,16.70
2017-08-26T20:36:35.035Z,16.73
2017-08-26T20:39:03.340Z,15.73
2017-08-26T20:41:31.669Z,15.73
2017-08-26T20:43:59.989Z,16.17
2017-08-26T20:46:28.320Z,14.40
2017-08-26T20:48:56.669Z,15.50
2017-08-26T20:51:24.966Z,16.17
2017-08-26T20:53:53.280Z,15.73
2017-08-26T20:56:21.601Z,15.10
2017-08-26T20:58:49.910Z,16.20
2017-08-26T21:01:18.246Z,17.27
2017-08-26T21:03:46.548Z,15.70
2017-08-26T21:06:14.850Z,14.83
2017-08-26T21:08:43.177Z,15.67
2017-08-26T21:11:11.475Z,14.70
2017-08-26T21:13:39.829Z,14.70
2017-08-26T21:16:08.177Z,15.30
2017-08-26T21:18:36.497Z,16.33
2017-08-26T21:21:04.826Z,15.87
2017-08-26T21:23:33.153Z,16.53
2017-08-26T21:26:01.466Z,14.40
2017-08-26T21:28:29.792Z,15.43
2017-08-26T21:30:58.136Z,14.27
2017-08-26T21:33:26.467Z,13.73
2017-08-26T21:35:54.801Z,13.07
2017-08-26T21:38:23.142Z,15.23
2017-08-26T21:40:51.447Z,14.47
2017-08-26T21:43:19.785Z,13.23
2017-08-26T21:45:48.110Z,14.07
2017-08-26T21:48:16.417Z,14.00
2017-08-26T21:50:44.742Z,13.87
2017-08-26T21:53:13.057Z,13.63
2017-08-26T21:55:41.391Z,13.43
2017-08-26T21:58:09.735Z,12.63
2017-08-26T22:00:38.088Z,12.70
2017-08-26T22:03:06.388Z,13.27
2017-08-26T22:05:34.686Z,12.80
2017-08-26T22:08:03.027Z,12.87
2017-08-26T22:10:31.325Z,12.53
2017-08-26T22:12:59.665Z,13.57
2017-08-26T22:15:28.001Z,11.87
2017-08-26T22:17:56.329Z,12.80
2017-08-26T22:20:24.678Z,13.10
2017-08-26T22:22:52.984Z,13.17
2017-08-26T22:25:21.310Z,13.37
2017-08-26T22:27:49.659Z,13.70
2017-08-26T22:30:17.958Z,12.63
2017-08-26T22:32:46.255Z,12.57
2017-08-26T22:35:14.609Z,13.07
2017-08-26T22:37:42.914Z,11.50
2017-08-26T22:40:11.220Z,12.07
2017-08-26T22:42:39.545Z,12.03
2017-08-26T22:45:07.855Z,13.37
2017-08-26T22:47:36.189Z,12.07
2017-08-26T22:50:04.499Z,12.97
2017-08-26T22:52:32.845Z,13.40
2017-08-26T22:55:01.140Z,12.17
2017-08-26T22:57:29.434Z,12.50
2017-08-26T22:59:57.761Z,12.57
2017-08-26T23:02:26.066Z,11.77
2017-08-26T23:04:54.420Z,12.93
2017-08-26T23:07:22.728Z,12.80
2017-08-26T23:09:51.037Z,13.87
2017-08-26T23:12:19.379Z,13.23
2017-08-26T23:14:47.678Z,12.77
2017-08-26T23:17:15.983Z,12.80
2017-08-26T23:19:44.323Z,11.93
2017-08-26T23:22:12.635Z,12.70
2017-08-26T23:24:40.977Z,12.93
2017-08-26T23:27:09.277Z,12.70
2017-08-26T23:29:37.591Z,12.57
2017-08-26T23:32:05.990Z,11.93
2017-08-26T23:34:34.300Z,12.57
2017-08-26T23:37:02.623Z,11.60
2017-08-26T23:39:30.962Z,11.63
2017-08-26T23:41:59.355Z,13.33
2017-08-26T23:44:27.656Z,13.27
2017-08-26T23:46:55.969Z,13.97
2017-08-26T23:49:24.304Z,14.23
2017-08-26T23:51:52.607Z,13.40
2017-08-26T23:54:20.906Z,13.13
2017-08-26T23:56:49.238Z,13.03
2017-08-26T23:59:17.571Z,12.17
